Tizayuca Airport

Jump to: basic info | weather | runways | comments

Related pages: nearby airports | nearby navaids | notams | map

Basic information (top)

Codes: MM28
Location: lon 19.874001, lat -98.943604, elev 7,600 ft / 2,316 m msl
Status: small_airport

Weather (top)

Current conditions for Licenciado Benito Juarez International Airport 27nm (50km) SSW (rec'd 2014/10/26 03:45Z):

MMMX 260345Z 32007KT 12SM SKC 14/07 A3041 NOSIG

Airport forecast for Licenciado Benito Juarez International Airport 27nm (50km) SSW (rec'd 2014/10/25 00:24Z):

TAF MMMX 252317Z 2600/2706 34010KT P6SM SKC TX23/2621Z TN12/2612Z 
      BECMG 2610/2611 04005KT 5SM HZ FU 
     FM261800 34010KT P6SM SKC 
      BECMG 2702/2703 04005KT

Runways (top)

01/19: 4,235 x 80 ft (1,291 x 24 m) — paved — not lighted

Latest comments (top)

No comments yet for Tizayuca Airport

More... (top)

See also NOTAMs and nearby airports and navaids, or visit the Tizayuca Airport page at the main OurAirports website..